Time;durP1;ratioP1;P1;durP2;ratioP2;P2;SDS_P1;SDS_P2;PMS_P1;PMS_P2;Temp;Humidity;BMP_temperature;BMP_pressure;BME280_temperature;BME280_humidity;BME280_pressure;Samples;Min_cycle;Max_cycle;Signal;HPM_P1;HPM_P2
2022/01/24 12:31:45;;;;;;;4.72;2.80;;;;;;;;;;5126615;27;20739;-72
2022/01/24 12:34:23;;;;;;;6.07;3.22;;;;;;;;;;5126409;27;20123;-72
2022/01/24 12:36:51;;;;;;;5.13;3.00;;;;;;;;;;5124887;27;20048;-73
2022/01/24 12:39:20;;;;;;;3.30;2.55;;;;;;;;;;5108435;27;20096;-74
2022/01/24 12:41:50;;;;;;;3.70;2.67;;;;;;;;;;5124330;27;20047;-74
2022/01/24 12:47:35;;;;;;;4.38;2.90;;;;;;;;;;5124987;27;20050;-74
2022/01/24 12:50:01;;;;;;;5.00;3.30;;;;;;;;;;5092293;28;20237;-74
2022/01/24 12:52:29;;;;;;;4.75;3.25;;;;;;;;;;5121754;27;20456;-74
2022/01/24 12:54:57;;;;;;;3.47;2.65;;;;;;;;;;5121379;27;20118;-74
2022/01/24 12:57:30;;;;;;;4.15;2.95;;;;;;;;;;5124366;27;20047;-74
2022/01/24 13:00:07;;;;;;;4.30;2.92;;;;;;;;;;5125090;27;20055;-76
2022/01/24 13:02:34;;;;;;;4.28;3.15;;;;;;;;;;5125238;27;20051;-75
2022/01/24 13:05:07;;;;;;;3.83;2.72;;;;;;;;;;5106921;28;20145;-76
2022/01/24 13:07:56;;;;;;;6.28;2.85;;;;;;;;;;5107072;27;20040;-76
2022/01/24 13:10:32;;;;;;;3.92;2.90;;;;;;;;;;5107460;28;20435;-73
2022/01/24 13:13:00;;;;;;;3.85;2.72;;;;;;;;;;5124681;28;20047;-78
2022/01/24 13:21:15;;;;;;;3.55;2.88;;;;;;;;;;5123299;27;20035;-73
2022/01/24 13:23:44;;;;;;;5.43;3.10;;;;;;;;;;5107306;28;20046;-74
2022/01/24 13:26:14;;;;;;;4.32;2.78;;;;;;;;;;5107138;27;20130;-73
2022/01/24 13:28:45;;;;;;;3.97;2.90;;;;;;;;;;5124780;27;20047;-74
2022/01/24 13:31:12;;;;;;;5.15;2.83;;;;;;;;;;5123717;27;20061;-74
2022/01/24 13:33:49;;;;;;;5.93;3.05;;;;;;;;;;5106226;28;20047;-75
2022/01/24 13:36:38;;;;;;;4.22;2.90;;;;;;;;;;5104074;28;20405;-74
2022/01/24 13:39:07;;;;;;;4.03;3.13;;;;;;;;;;5087279;28;20075;-75
2022/01/24 13:41:39;;;;;;;5.47;3.20;;;;;;;;;;5081187;28;20101;-76
2022/01/24 13:44:07;;;;;;;4.40;2.92;;;;;;;;;;5073217;28;20054;-75
2022/01/24 13:49:28;;;;;;;4.75;3.00;;;;;;;;;;5098591;28;20054;-73
2022/01/24 13:51:54;;;;;;;4.82;2.88;;;;;;;;;;5110653;28;20054;-72
2022/01/24 13:54:23;;;;;;;4.72;2.88;;;;;;;;;;5111614;27;20050;-73
2022/01/24 13:56:52;;;;;;;8.43;3.10;;;;;;;;;;5109778;28;20047;-73
2022/01/24 13:59:24;;;;;;;6.13;3.30;;;;;;;;;;5093025;28;20105;-72
2022/01/24 14:01:51;;;;;;;11.05;3.10;;;;;;;;;;5093472;28;20408;-72
2022/01/24 14:04:38;;;;;;;3.88;2.78;;;;;;;;;;5082165;28;20101;-72
2022/01/24 14:07:10;;;;;;;5.40;3.10;;;;;;;;;;5091053;28;20052;-75
2022/01/24 14:09:41;;;;;;;6.80;3.05;;;;;;;;;;5072579;28;20568;-73
2022/01/24 14:12:11;;;;;;;4.60;3.03;;;;;;;;;;5072659;28;20125;-74
2022/01/24 14:19:56;;;;;;;5.95;3.38;;;;;;;;;;5065982;28;20480;-74
2022/01/24 14:22:23;;;;;;;5.38;3.00;;;;;;;;;;5052102;28;20049;-74
2022/01/24 14:24:52;;;;;;;4.18;3.00;;;;;;;;;;5052481;28;20051;-73
2022/01/24 14:27:49;;;;;;;4.05;3.00;;;;;;;;;;5052253;28;20056;-75
2022/01/24 14:30:19;;;;;;;8.52;3.40;;;;;;;;;;5051130;28;20640;-75
2022/01/24 14:33:20;;;;;;;4.47;3.00;;;;;;;;;;5068384;28;20134;-75
2022/01/24 14:36:03;;;;;;;5.05;3.42;;;;;;;;;;5053673;28;20472;-78
2022/01/24 14:38:36;;;;;;;7.28;3.03;;;;;;;;;;5070415;28;20444;-75
2022/01/24 14:41:06;;;;;;;6.90;3.30;;;;;;;;;;5068645;28;20047;-72
2022/01/24 14:46:23;;;;;;;6.70;3.40;;;;;;;;;;5068667;28;20056;-74
2022/01/24 14:48:54;;;;;;;5.45;3.22;;;;;;;;;;5068772;28;20135;-74
2022/01/24 14:51:25;;;;;;;8.18;3.67;;;;;;;;;;5051102;28;20046;-75
2022/01/24 14:53:55;;;;;;;4.47;3.50;;;;;;;;;;5067404;28;20052;-75
2022/01/24 14:56:21;;;;;;;6.88;3.50;;;;;;;;;;5057534;28;20112;-72
2022/01/24 14:58:47;;;;;;;6.78;3.80;;;;;;;;;;5049083;28;20479;-71
2022/01/24 15:01:13;;;;;;;6.00;3.50;;;;;;;;;;5058962;28;20067;-71
2022/01/24 15:03:41;;;;;;;6.38;3.53;;;;;;;;;;5067263;28;20051;-71
2022/01/24 15:06:08;;;;;;;5.65;3.15;;;;;;;;;;5050993;28;20714;-71
2022/01/24 15:08:34;;;;;;;6.10;3.13;;;;;;;;;;5068432;28;20159;-73
2022/01/24 15:11:00;;;;;;;5.05;3.28;;;;;;;;;;5062903;28;20040;-71
2022/01/24 15:13:34;;;;;;;6.45;3.60;;;;;;;;;;5066577;28;20048;-72
2022/01/24 15:16:31;;;;;;;6.53;3.28;;;;;;;;;;5067927;28;20064;-72
2022/01/24 15:26:50;;;;;;;4.60;3.15;;;;;;;;;;5050742;28;20041;-71
2022/01/24 15:29:19;;;;;;;5.80;3.53;;;;;;;;;;5047151;28;20048;-69
2022/01/24 15:31:46;;;;;;;5.38;3.40;;;;;;;;;;5047549;28;20041;-70
2022/01/24 15:34:18;;;;;;;5.93;3.80;;;;;;;;;;5041897;28;20049;-71
2022/01/24 15:36:45;;;;;;;5.28;3.70;;;;;;;;;;5035401;28;20045;-72
2022/01/24 15:39:11;;;;;;;5.63;3.33;;;;;;;;;;5067910;28;20048;-70
2022/01/24 15:41:48;;;;;;;4.95;3.42;;;;;;;;;;5067054;28;20053;-70
2022/01/24 15:47:19;;;;;;;5.10;3.30;;;;;;;;;;5067453;28;20051;-70
2022/01/24 15:49:45;;;;;;;;;;;;;;;;;;5067704;28;20059;-72
2022/01/24 15:52:11;;;;;;;5.80;3.40;;;;;;;;;;5067251;28;19921;-72
2022/01/24 15:54:37;;;;;;;6.80;3.10;;;;;;;;;;5068390;28;20041;-72
2022/01/24 15:59:49;;;;;;;4.97;3.25;;;;;;;;;;5052633;28;20128;-72
2022/01/24 16:02:15;;;;;;;5.15;3.42;;;;;;;;;;5047552;28;20049;-72
2022/01/24 16:04:41;;;;;;;5.60;3.63;;;;;;;;;;5029765;28;20045;-71
2022/01/24 16:07:08;;;;;;;5.95;3.75;;;;;;;;;;5047696;28;20419;-71
2022/01/24 16:09:34;;;;;;;9.40;3.53;;;;;;;;;;5048668;28;20037;-70
2022/01/24 16:12:00;;;;;;;5.47;3.42;;;;;;;;;;5046118;28;20044;-71
2022/01/24 16:14:26;;;;;;;5.15;3.40;;;;;;;;;;5029707;28;20491;-70
2022/01/24 16:16:53;;;;;;;6.13;3.50;;;;;;;;;;5030268;28;20055;-70
2022/01/24 16:19:21;;;;;;;4.50;3.00;;;;;;;;;;5045903;28;20407;-71
2022/01/24 16:22:45;;;;;;;5.82;3.75;;;;;;;;;;5029825;28;20049;-71
2022/01/24 16:27:00;;;;;;;6.00;3.40;;;;;;;;;;5046692;28;20049;-70
2022/01/24 16:29:27;;;;;;;8.27;3.55;;;;;;;;;;5046528;28;20403;-72
2022/01/24 16:31:53;;;;;;;8.20;3.28;;;;;;;;;;5029470;28;20084;-72
2022/01/24 16:34:20;;;;;;;7.13;3.83;;;;;;;;;;5030096;28;20410;-72
2022/01/24 16:36:47;;;;;;;6.20;3.20;;;;;;;;;;5030205;28;20484;-71
2022/01/24 16:39:17;;;;;;;5.10;3.45;;;;;;;;;;5046417;28;20407;-71
2022/01/24 16:41:57;;;;;;;5.75;3.25;;;;;;;;;;5038410;28;20041;-71
2022/01/24 16:47:09;;;;;;;5.32;3.60;;;;;;;;;;5065609;28;20060;-71
2022/01/24 16:49:37;;;;;;;6.22;3.85;;;;;;;;;;5065988;28;20063;-70
2022/01/24 16:52:04;;;;;;;5.07;3.00;;;;;;;;;;5066627;28;20469;-70
2022/01/24 16:54:31;;;;;;;5.20;4.03;;;;;;;;;;5062115;28;20117;-70
2022/01/24 16:56:57;;;;;;;5.22;3.33;;;;;;;;;;5068239;28;20048;-70
2022/01/24 16:59:24;;;;;;;4.20;3.30;;;;;;;;;;5066201;28;20045;-70
2022/01/24 17:01:51;;;;;;;4.90;3.58;;;;;;;;;;5067370;28;20044;-70
2022/01/24 17:04:18;;;;;;;4.72;3.30;;;;;;;;;;5067728;28;20127;-71
2022/01/24 17:06:44;;;;;;;5.53;3.60;;;;;;;;;;5058000;28;20088;-70
2022/01/24 17:09:10;;;;;;;5.03;3.42;;;;;;;;;;5066232;28;20041;-70
2022/01/24 17:11:39;;;;;;;7.00;3.60;;;;;;;;;;5066128;28;20052;-70
2022/01/24 17:14:11;;;;;;;7.83;3.40;;;;;;;;;;5050263;28;20709;-72
2022/01/24 17:16:38;;;;;;;8.15;3.40;;;;;;;;;;5066653;28;20052;-71
2022/01/24 17:19:04;;;;;;;9.82;3.83;;;;;;;;;;5071058;28;20506;-70
2022/01/24 17:21:31;;;;;;;5.63;3.80;;;;;;;;;;5070985;28;20521;-71
2022/01/24 17:23:57;;;;;;;10.18;3.90;;;;;;;;;;5053370;28;20048;-72
2022/01/24 17:26:23;;;;;;;7.20;3.55;;;;;;;;;;5069954;28;20040;-72
2022/01/24 17:28:49;;;;;;;7.32;3.88;;;;;;;;;;5053214;28;20044;-71
2022/01/24 17:31:16;;;;;;;5.65;3.47;;;;;;;;;;5064541;28;20053;-72
2022/01/24 17:33:42;;;;;;;5.72;3.35;;;;;;;;;;5049781;28;20052;-71
2022/01/24 17:36:08;;;;;;;5.93;3.92;;;;;;;;;;5050863;28;20083;-70
2022/01/24 17:38:35;;;;;;;6.95;3.97;;;;;;;;;;5051182;28;20115;-70
2022/01/24 17:41:02;;;;;;;7.13;3.47;;;;;;;;;;5033083;28;20045;-71
2022/01/24 17:43:28;;;;;;;5.68;3.50;;;;;;;;;;5050965;28;20087;-71
2022/01/24 17:45:56;;;;;;;4.70;3.33;;;;;;;;;;5053264;28;20047;-72
2022/01/24 17:48:22;;;;;;;4.40;3.17;;;;;;;;;;5070512;28;20167;-71
2022/01/24 17:50:49;;;;;;;4.75;3.63;;;;;;;;;;5070878;28;20418;-71
2022/01/24 17:53:15;;;;;;;7.05;4.13;;;;;;;;;;5069575;28;20041;-72
2022/01/24 17:55:42;;;;;;;5.90;3.53;;;;;;;;;;5069742;28;20097;-72
2022/01/24 17:58:08;;;;;;;5.00;3.45;;;;;;;;;;5068930;28;20429;-72
2022/01/24 18:00:35;;;;;;;9.60;4.22;;;;;;;;;;5069101;28;20439;-71
2022/01/24 18:03:01;;;;;;;6.05;3.75;;;;;;;;;;5052434;28;20490;-72
2022/01/24 18:05:27;;;;;;;8.77;3.88;;;;;;;;;;5070563;28;20460;-72
2022/01/24 18:07:53;;;;;;;6.97;4.10;;;;;;;;;;5069168;28;20044;-72
2022/01/24 18:10:20;;;;;;;12.88;3.90;;;;;;;;;;5049401;28;20049;-72
2022/01/24 18:12:53;;;;;;;8.05;3.80;;;;;;;;;;5058767;28;20328;-75
2022/01/24 18:19:03;;;;;;;6.95;4.20;;;;;;;;;;5058527;28;20051;-72
2022/01/24 18:21:29;;;;;;;6.13;3.90;;;;;;;;;;5074047;28;20081;-68
2022/01/24 18:23:55;;;;;;;7.00;4.47;;;;;;;;;;5084230;28;20485;-68
2022/01/24 18:26:23;;;;;;;6.30;4.03;;;;;;;;;;5054844;28;20051;-68
2022/01/24 18:28:49;;;;;;;5.53;3.72;;;;;;;;;;5031421;28;20041;-68
2022/01/24 18:31:15;;;;;;;5.10;3.70;;;;;;;;;;5040779;28;20389;-67
2022/01/24 18:33:41;;;;;;;8.63;4.13;;;;;;;;;;5062517;28;20048;-67
2022/01/24 18:36:07;;;;;;;7.32;4.32;;;;;;;;;;5067243;28;20414;-67
2022/01/24 18:38:33;;;;;;;6.70;4.20;;;;;;;;;;5068389;28;20152;-67
2022/01/24 18:40:59;;;;;;;5.68;3.80;;;;;;;;;;5067716;28;20139;-67
2022/01/24 18:43:28;;;;;;;6.30;3.58;;;;;;;;;;5051391;28;20032;-68
2022/01/24 18:45:55;;;;;;;6.50;3.88;;;;;;;;;;5068088;28;20049;-67
2022/01/24 18:48:21;;;;;;;6.68;3.97;;;;;;;;;;5067381;28;20045;-68
2022/01/24 18:50:48;;;;;;;6.47;4.25;;;;;;;;;;5068358;28;20044;-69
2022/01/24 18:53:14;;;;;;;6.30;3.83;;;;;;;;;;5069180;28;20409;-69
2022/01/24 18:55:40;;;;;;;6.53;3.88;;;;;;;;;;5067614;28;20181;-68
2022/01/24 18:58:06;;;;;;;8.23;3.90;;;;;;;;;;5068618;28;20083;-68
2022/01/24 19:00:32;;;;;;;6.70;4.13;;;;;;;;;;5067036;28;20083;-67
2022/01/24 19:02:59;;;;;;;6.95;3.72;;;;;;;;;;5067776;28;20097;-68
2022/01/24 19:05:28;;;;;;;6.75;4.15;;;;;;;;;;5050533;28;20144;-68
2022/01/24 19:07:54;;;;;;;5.72;3.80;;;;;;;;;;5067297;28;20083;-67
2022/01/24 19:10:21;;;;;;;5.75;4.05;;;;;;;;;;5064606;28;20149;-68
2022/01/24 19:12:48;;;;;;;5.65;4.15;;;;;;;;;;5048512;28;20149;-67
2022/01/24 19:15:16;;;;;;;6.78;4.53;;;;;;;;;;5036279;28;20059;-68
2022/01/24 19:17:45;;;;;;;6.47;4.22;;;;;;;;;;5051263;28;20060;-68
2022/01/24 19:25:25;;;;;;;6.03;4.18;;;;;;;;;;5063116;28;21022;-67
2022/01/24 19:27:52;;;;;;;6.57;4.18;;;;;;;;;;5049227;28;20055;-67
2022/01/24 19:30:18;;;;;;;6.00;4.18;;;;;;;;;;5049070;28;20059;-67
2022/01/24 19:32:44;;;;;;;6.03;4.07;;;;;;;;;;5050710;28;20598;-67
2022/01/24 19:35:11;;;;;;;5.97;4.07;;;;;;;;;;5065410;28;20058;-67
2022/01/24 19:37:38;;;;;;;5.70;4.00;;;;;;;;;;5051040;28;20049;-67
2022/01/24 19:40:05;;;;;;;5.82;4.22;;;;;;;;;;5067318;28;20117;-67
2022/01/24 19:42:31;;;;;;;5.10;3.83;;;;;;;;;;5067732;28;20136;-67
2022/01/24 19:44:57;;;;;;;6.03;4.15;;;;;;;;;;5051375;28;20056;-67
2022/01/24 19:47:23;;;;;;;5.05;3.92;;;;;;;;;;5068388;28;20052;-67
2022/01/24 19:49:50;;;;;;;5.90;4.20;;;;;;;;;;5068111;28;20165;-67
2022/01/24 19:52:16;;;;;;;7.55;3.90;;;;;;;;;;5068606;28;20067;-67
2022/01/24 19:54:51;;;;;;;6.65;4.05;;;;;;;;;;5050553;28;20482;-67
2022/01/24 19:57:26;;;;;;;6.10;4.30;;;;;;;;;;5062706;28;20045;-66
2022/01/24 19:59:52;;;;;;;6.00;3.90;;;;;;;;;;5048416;28;20052;-67
2022/01/24 20:02:18;;;;;;;6.78;4.15;;;;;;;;;;5046756;28;20037;-67
2022/01/24 20:04:45;;;;;;;6.03;4.28;;;;;;;;;;5063177;28;20056;-68
2022/01/24 20:07:13;;;;;;;8.65;5.03;;;;;;;;;;5057178;28;20074;-67
2022/01/24 20:09:40;;;;;;;6.15;4.35;;;;;;;;;;5032898;28;20063;-67
2022/01/24 20:12:06;;;;;;;5.70;4.45;;;;;;;;;;5066193;28;20049;-67
2022/01/24 20:14:33;;;;;;;6.43;4.50;;;;;;;;;;5068232;28;20040;-68
2022/01/24 20:16:59;;;;;;;6.60;4.00;;;;;;;;;;5043114;28;20525;-68
2022/01/24 20:19:25;;;;;;;7.53;4.55;;;;;;;;;;5048043;28;20550;-67
2022/01/24 20:21:52;;;;;;;6.20;4.35;;;;;;;;;;5055051;28;20040;-66
2022/01/24 20:24:18;;;;;;;5.63;3.92;;;;;;;;;;5066152;28;20056;-66
2022/01/24 20:26:45;;;;;;;7.70;4.65;;;;;;;;;;5063865;28;20089;-66
2022/01/24 20:29:16;;;;;;;6.35;4.30;;;;;;;;;;5066561;28;20052;-67
2022/01/24 20:31:42;;;;;;;6.20;4.25;;;;;;;;;;5044628;28;20083;-66
2022/01/24 20:34:08;;;;;;;6.80;4.43;;;;;;;;;;5066162;28;20052;-67
2022/01/24 20:36:34;;;;;;;7.15;4.65;;;;;;;;;;5061064;28;20076;-67
2022/01/24 20:39:01;;;;;;;5.63;4.35;;;;;;;;;;5046175;28;20049;-67
2022/01/24 20:41:27;;;;;;;7.45;4.88;;;;;;;;;;5067420;28;20552;-67
2022/01/24 20:43:53;;;;;;;5.78;4.40;;;;;;;;;;5066937;28;20048;-67
2022/01/24 20:46:19;;;;;;;6.70;4.55;;;;;;;;;;5064687;28;20044;-68
2022/01/24 20:48:45;;;;;;;6.45;4.60;;;;;;;;;;5066571;28;20051;-68
2022/01/24 20:51:14;;;;;;;6.45;4.43;;;;;;;;;;5066372;28;20497;-68
2022/01/24 20:53:40;;;;;;;6.35;4.60;;;;;;;;;;5067037;28;20064;-67
2022/01/24 20:56:07;;;;;;;6.53;4.72;;;;;;;;;;5070374;28;20042;-67
2022/01/24 20:58:33;;;;;;;11.20;5.43;;;;;;;;;;5070841;28;20095;-67
2022/01/24 21:00:59;;;;;;;9.57;4.75;;;;;;;;;;5071155;28;20052;-66
2022/01/24 21:03:25;;;;;;;6.90;4.47;;;;;;;;;;5052812;28;20521;-66
2022/01/24 21:05:51;;;;;;;6.93;4.85;;;;;;;;;;5061769;28;20132;-67
2022/01/24 21:08:17;;;;;;;6.72;4.43;;;;;;;;;;5070156;28;20106;-67
2022/01/24 21:10:45;;;;;;;8.27;4.85;;;;;;;;;;5071381;28;20540;-66
2022/01/24 21:13:17;;;;;;;7.50;4.68;;;;;;;;;;5071124;28;20496;-67
2022/01/24 21:15:43;;;;;;;6.63;4.80;;;;;;;;;;5069042;28;20059;-66
2022/01/24 21:18:10;;;;;;;7.78;4.57;;;;;;;;;;5070853;28;20040;-69
2022/01/24 21:20:36;;;;;;;6.47;4.53;;;;;;;;;;5068064;28;20520;-66
2022/01/24 21:23:03;;;;;;;7.50;4.95;;;;;;;;;;5052612;28;20448;-67
2022/01/24 21:25:29;;;;;;;7.05;4.68;;;;;;;;;;5070921;28;20048;-66
2022/01/24 21:27:55;;;;;;;6.78;4.78;;;;;;;;;;5069646;28;20074;-68
2022/01/24 21:30:21;;;;;;;7.25;4.95;;;;;;;;;;5070908;28;20064;-67
2022/01/24 21:32:53;;;;;;;7.25;4.65;;;;;;;;;;5057951;28;20056;-66
2022/01/24 21:35:22;;;;;;;6.45;4.47;;;;;;;;;;5068964;28;20064;-67
2022/01/24 21:37:48;;;;;;;;;;;;;;;;;;5069613;28;20127;-66
2022/01/24 21:40:17;;;;;;;6.47;4.50;;;;;;;;;;5052323;28;20952;-68
2022/01/24 21:42:51;;;;;;;5.88;4.63;;;;;;;;;;5057556;28;20074;-67
2022/01/24 21:45:17;;;;;;;5.88;4.60;;;;;;;;;;5032789;28;20113;-67
2022/01/24 21:47:44;;;;;;;6.63;5.05;;;;;;;;;;5049910;28;20147;-67
2022/01/24 21:50:13;;;;;;;6.45;4.70;;;;;;;;;;5068850;28;20587;-67
2022/01/24 21:52:40;;;;;;;6.88;4.55;;;;;;;;;;5051972;28;20047;-67
2022/01/24 21:55:09;;;;;;;7.60;4.75;;;;;;;;;;5069757;28;20056;-67
2022/01/24 21:57:36;;;;;;;6.35;4.63;;;;;;;;;;5051578;28;20110;-67
2022/01/24 22:00:05;;;;;;;6.88;4.75;;;;;;;;;;5050155;28;20048;-67
2022/01/24 22:02:31;;;;;;;6.38;4.63;;;;;;;;;;5032049;28;20148;-68
2022/01/24 22:04:57;;;;;;;6.28;4.63;;;;;;;;;;5049978;28;20140;-67
2022/01/24 22:07:34;;;;;;;7.40;4.85;;;;;;;;;;5048087;28;20520;-67
2022/01/24 22:10:00;;;;;;;6.85;4.82;;;;;;;;;;5049417;28;20049;-67
2022/01/24 22:12:26;;;;;;;6.60;4.80;;;;;;;;;;5066920;28;20434;-67
2022/01/24 22:14:52;;;;;;;6.55;4.57;;;;;;;;;;5069839;28;20058;-67
2022/01/24 22:17:18;;;;;;;6.05;4.80;;;;;;;;;;5067885;28;20162;-67
2022/01/24 22:19:45;;;;;;;7.40;5.22;;;;;;;;;;5056485;28;20049;-67
2022/01/24 22:23:29;;;;;;;6.47;5.03;;;;;;;;;;5039220;28;20056;-67
2022/01/24 22:24:57;;;;;;;6.05;4.63;;;;;;;;;;5049901;28;20052;-67
2022/01/24 22:27:23;;;;;;;7.35;4.90;;;;;;;;;;5033328;28;20048;-68
2022/01/24 22:29:49;;;;;;;7.45;4.93;;;;;;;;;;5047811;28;20189;-68
2022/01/24 22:32:15;;;;;;;7.40;4.72;;;;;;;;;;5048178;28;20079;-68
2022/01/24 22:34:41;;;;;;;7.53;4.78;;;;;;;;;;5049794;28;20041;-64
2022/01/24 22:37:07;;;;;;;7.85;4.88;;;;;;;;;;5048945;28;20568;-64
2022/01/24 22:39:33;;;;;;;9.23;4.88;;;;;;;;;;5047830;28;20056;-64
2022/01/24 22:42:05;;;;;;;7.07;4.85;;;;;;;;;;5074414;28;20052;-64
2022/01/24 22:44:32;;;;;;;7.18;4.65;;;;;;;;;;5068671;28;20040;-64
2022/01/24 22:47:02;;;;;;;7.55;4.95;;;;;;;;;;5070168;28;20044;-64
2022/01/24 22:49:29;;;;;;;7.20;4.60;;;;;;;;;;5069441;28;20135;-63
2022/01/24 22:51:58;;;;;;;12.57;4.95;;;;;;;;;;5069203;28;20059;-64
2022/01/24 22:54:26;;;;;;;9.00;4.72;;;;;;;;;;5063205;28;20138;-64
2022/01/24 22:56:52;;;;;;;6.53;4.82;;;;;;;;;;5049626;28;20049;-63
2022/01/24 22:59:18;;;;;;;6.70;4.70;;;;;;;;;;5049675;28;20048;-64
2022/01/24 23:01:46;;;;;;;6.72;4.78;;;;;;;;;;5052045;28;20047;-64
2022/01/24 23:04:12;;;;;;;8.93;4.85;;;;;;;;;;5048746;28;20395;-64
2022/01/24 23:06:38;;;;;;;5.85;4.50;;;;;;;;;;5049483;28;20473;-65
2022/01/24 23:09:04;;;;;;;6.38;4.55;;;;;;;;;;5048454;28;20049;-64
2022/01/24 23:11:30;;;;;;;6.05;4.53;;;;;;;;;;5048922;28;20375;-64
2022/01/24 23:19:13;;;;;;;6.20;4.60;;;;;;;;;;5062539;28;20220;-64
2022/01/24 23:21:40;;;;;;;7.30;5.00;;;;;;;;;;5069176;28;20536;-64
2022/01/24 23:24:08;;;;;;;7.57;4.90;;;;;;;;;;5068986;28;20501;-64
2022/01/24 23:26:40;;;;;;;7.13;5.18;;;;;;;;;;5061533;28;20049;-64
2022/01/24 23:29:09;;;;;;;7.22;5.10;;;;;;;;;;5048126;28;20084;-64
2022/01/24 23:31:38;;;;;;;7.25;5.25;;;;;;;;;;5033439;28;20052;-64
2022/01/24 23:39:23;;;;;;;7.57;4.93;;;;;;;;;;5048142;28;20064;-64
2022/01/24 23:41:51;;;;;;;5.78;4.38;;;;;;;;;;5048875;28;20045;-65
2022/01/24 23:44:19;;;;;;;8.73;4.93;;;;;;;;;;5049174;28;20053;-67
2022/01/24 23:46:49;;;;;;;7.60;5.18;;;;;;;;;;5048117;28;20056;-64
2022/01/24 23:49:15;;;;;;;8.43;5.47;;;;;;;;;;5067713;28;20036;-65
2022/01/24 23:51:41;;;;;;;8.98;4.57;;;;;;;;;;5068758;28;20056;-65
2022/01/24 23:54:07;;;;;;;7.25;5.18;;;;;;;;;;5068333;28;20044;-64
2022/01/24 23:56:40;;;;;;;7.50;4.85;;;;;;;;;;5051044;28;20044;-63
